logo
Search for airport 
image banner adimage banner adimage banner ad
image banner ad

SJXI - Santa Rita Do Sapucaí

Located in Santa Rita Do Sapucaí, Brazil

ICAO - SJXI, IATA -

Data provided by Airmate  

General information

Coordinates: S22°16'22" W45°38'24"
Elevation is 2893 feet MSL.
Magnetic variation is -20° East
View others Airports in Ceará

Operational data

Special qualification required
Current time UTC:
Current local time:
Weather at : SBGW - Guaratinguetá ( 73 km )
METAR: SBGW 131500Z 03006KT 9999 BKN025 27/17 Q1019
TAF: TAF SBGW 130900Z 1312/1324 09004KT 9999 BKN020 TX28/1318Z TN22/1324Z TEMPO 1316/1322 SCT030 FEW035TCU RMK PFO
View NOTAMs / SUP AIP / TFR affecting this airport [VIEW]
Communications frequencies: [VIEW]

Runways:

RWY identifierQFULength (ft)Width (ft)SurfaceLDA (ft)
16112080EARTH
34112080EARTH

Airport contact information

Address: Santa Rita Do Sapucaí Brazil

Satellite view of SJXI